Time;durP1;ratioP1;P1;durP2;ratioP2;P2;SDS_P1;SDS_P2;PMS_P1;PMS_P2;Temp;Humidity;BMP_temperature;BMP_pressure;BME280_temperature;BME280_humidity;BME280_pressure;Samples;Min_cycle;Max_cycle;Signal;HPM_P1;HPM_P2
2022/11/25 00:07:14;;;;;;;7.53;3.03;;;3.70;99.90;;;;;;21238949;27;20031;-77
2022/11/25 00:17:15;;;;;;;6.80;3.42;;;3.70;99.90;;;;;;21239361;27;20037;-78
2022/11/25 00:27:16;;;;;;;12.40;4.20;;;4.10;99.90;;;;;;21221566;27;20606;-77
2022/11/25 00:37:17;;;;;;;6.45;3.70;;;4.10;99.90;;;;;;21222277;27;20704;-78
2022/11/25 00:47:20;;;;;;;9.52;4.18;;;3.90;99.90;;;;;;21239368;27;20027;-77
2022/11/25 00:57:22;;;;;;;8.80;4.15;;;4.00;99.90;;;;;;21235976;27;20031;-77
2022/11/25 01:07:23;;;;;;;12.95;5.95;;;4.00;99.90;;;;;;21250734;27;20053;-78
2022/11/25 01:17:24;;;;;;;10.13;5.53;;;3.90;99.90;;;;;;21233234;27;20451;-78
2022/11/25 01:27:27;;;;;;;14.23;6.43;;;3.90;99.90;;;;;;21232939;27;20128;-78
2022/11/25 01:37:28;;;;;;;16.17;6.53;;;3.80;99.90;;;;;;21185432;27;20024;-78
2022/11/25 01:47:29;;;;;;;42.75;8.68;;;3.70;99.90;;;;;;21145561;28;20039;-78
2022/11/25 01:57:39;;;;;;;80.60;9.13;;;3.70;99.90;;;;;;21181700;27;20516;-78
2022/11/25 02:07:45;;;;;;;13.93;6.20;;;3.60;99.90;;;;;;21229233;27;20031;-78
2022/11/25 02:17:46;;;;;;;14.95;7.95;;;3.50;99.90;;;;;;21245538;27;20050;-78
2022/11/25 02:27:50;;;;;;;25.50;10.27;;;3.70;99.90;;;;;;21226344;28;20069;-78
2022/11/25 02:37:54;;;;;;;30.70;10.50;;;3.90;99.90;;;;;;21245596;28;20046;-78
2022/11/25 02:47:55;;;;;;;43.00;11.52;;;3.80;99.90;;;;;;21226971;28;20027;-78
2022/11/25 02:57:56;;;;;;;73.93;14.23;;;3.70;99.90;;;;;;21226237;28;20114;-77
2022/11/25 03:07:57;;;;;;;30.60;11.93;;;3.70;99.90;;;;;;21240095;28;20088;-78
2022/11/25 03:17:58;;;;;;;50.83;13.45;;;3.80;99.90;;;;;;21247661;27;20031;-78
2022/11/25 03:28:01;;;;;;;35.90;12.77;;;3.90;99.90;;;;;;21230394;27;20027;-78
2022/11/25 03:38:03;;;;;;;44.65;13.80;;;3.90;99.90;;;;;;21244669;27;20031;-78
2022/11/25 03:48:08;;;;;;;39.17;14.45;;;4.00;99.90;;;;;;21242484;27;20027;-76
2022/11/25 03:58:11;;;;;;;28.20;11.48;;;4.00;99.90;;;;;;21254242;27;20031;-76
2022/11/25 04:08:12;;;;;;;31.27;11.10;;;4.00;99.90;;;;;;21221264;27;20039;-78
2022/11/25 04:18:14;;;;;;;27.95;10.35;;;4.00;99.90;;;;;;21255824;27;20107;-79
2022/11/25 04:28:17;;;;;;;22.90;9.10;;;3.90;99.90;;;;;;21338401;27;20050;-79
2022/11/25 04:38:18;;;;;;;25.60;10.13;;;3.80;99.90;;;;;;21354994;27;20035;-78
2022/11/25 04:48:19;;;;;;;30.25;11.75;;;3.70;99.90;;;;;;21331951;27;20110;-79
2022/11/25 05:08:42;;;;;;;;;;;3.70;99.90;;;;;;21321627;27;20083;-80
2022/11/25 05:18:44;;;;;;;36.88;14.02;;;3.70;99.90;;;;;;21370467;27;19911;-79
2022/11/25 05:28:45;;;;;;;28.23;12.30;;;3.80;99.90;;;;;;21412599;27;20038;-77
2022/11/25 05:38:46;;;;;;;29.85;13.07;;;3.90;99.90;;;;;;21423529;27;20492;-79
2022/11/25 05:48:54;;;;;;;32.70;13.32;;;4.00;99.90;;;;;;21401539;27;20023;-78
2022/11/25 05:58:57;;;;;;;26.45;11.48;;;4.10;99.90;;;;;;21382632;27;20019;-77
2022/11/25 06:09:04;;;;;;;31.15;10.05;;;4.10;99.90;;;;;;21318827;27;20401;-77
2022/11/25 06:19:05;;;;;;;23.65;8.73;;;4.00;99.90;;;;;;21312714;27;20031;-76
2022/11/25 06:29:07;;;;;;;21.23;9.43;;;4.10;99.90;;;;;;21293843;27;20031;-77
2022/11/25 06:39:08;;;;;;;22.40;7.97;;;4.10;99.90;;;;;;21328033;27;20023;-76
2022/11/25 06:49:09;;;;;;;17.15;7.22;;;4.00;99.90;;;;;;21331789;27;20019;-77
2022/11/25 06:59:10;;;;;;;20.55;9.45;;;3.90;99.90;;;;;;21333841;27;20019;-77
2022/11/25 07:09:11;;;;;;;22.75;9.43;;;3.80;99.90;;;;;;21347287;27;20033;-78
2022/11/25 07:19:14;;;;;;;15.43;7.97;;;3.80;99.90;;;;;;21356827;27;20061;-78
2022/11/25 07:29:16;;;;;;;22.08;8.60;;;3.80;99.90;;;;;;21339613;27;20441;-78
2022/11/25 07:39:18;;;;;;;32.30;11.73;;;4.00;99.90;;;;;;21339310;27;20027;-77
2022/11/25 07:49:23;;;;;;;29.83;12.52;;;4.40;99.90;;;;;;21354517;27;20527;-78
2022/11/25 07:59:24;;;;;;;33.22;14.00;;;4.60;99.90;;;;;;21331407;27;20035;-78
2022/11/25 08:09:25;;;;;;;;;;;5.00;99.90;;;;;;21351087;27;20039;-77
2022/11/25 08:19:26;;;;;;;29.27;12.05;;;4.70;99.90;;;;;;21323034;27;19915;-77
2022/11/25 08:29:26;;;;;;;28.17;12.13;;;4.80;99.90;;;;;;21263809;27;20027;-77
2022/11/25 08:39:28;;;;;;;26.40;10.90;;;4.80;99.90;;;;;;21258902;27;20035;-77
2022/11/25 08:49:29;;;;;;;26.98;11.25;;;4.90;99.90;;;;;;21239892;27;20074;-78
2022/11/25 08:59:30;;;;;;;27.88;10.27;;;5.10;99.90;;;;;;21257219;27;20023;-78
2022/11/25 09:09:31;;;;;;;;;;;5.30;99.90;;;;;;21239417;27;20031;-77
2022/11/25 09:19:31;;;;;;;26.20;10.35;;;5.30;99.90;;;;;;21255857;27;20450;-77
2022/11/25 09:29:32;;;;;;;;;;;5.40;99.90;;;;;;21235684;27;20035;-76
2022/11/25 09:39:34;;;;;;;89.27;33.03;;;5.50;99.90;;;;;;21238442;27;19907;-78
2022/11/25 09:50:01;;;;;;;21.00;10.07;;;5.60;99.90;;;;;;21239949;27;20038;-78
2022/11/25 10:00:11;;;;;;;20.30;9.82;;;5.60;99.90;;;;;;21256503;27;20159;-79
2022/11/25 10:10:21;;;;;;;25.17;10.45;;;5.80;99.90;;;;;;21261810;27;20042;-78
2022/11/25 10:20:24;;;;;;;18.70;9.63;;;6.20;99.90;;;;;;21303969;27;20438;-78
2022/11/25 10:30:38;;;;;;;24.85;10.98;;;6.30;99.90;;;;;;21339739;27;20034;-78
2022/11/25 10:40:41;;;;;;;28.08;12.27;;;6.30;99.90;;;;;;21350797;27;20042;-78
2022/11/25 10:50:56;;;;;;;30.38;12.60;;;6.00;99.90;;;;;;21344350;27;20090;-79
2022/11/25 11:01:18;;;;;;;37.58;17.77;;;6.30;99.90;;;;;;21359799;27;20071;-79
2022/11/25 11:11:23;;;;;;;28.80;11.82;;;6.90;99.90;;;;;;21340572;27;20113;-79
2022/11/25 11:21:28;;;;;;;25.40;10.75;;;7.20;99.90;;;;;;21317507;27;20047;-79
2022/11/25 11:31:38;;;;;;;26.55;11.57;;;7.00;99.90;;;;;;21251929;27;20074;-79
2022/11/25 11:41:51;;;;;;;24.20;12.07;;;7.10;99.90;;;;;;21272119;27;20031;-80
2022/11/25 11:52:13;;;;;;;25.60;12.70;;;7.40;99.90;;;;;;21251640;27;20028;-78
2022/11/25 12:02:25;;;;;;;22.52;12.20;;;7.50;99.90;;;;;;21252311;27;20027;-79
2022/11/25 12:12:33;;;;;;;;;;;7.50;99.90;;;;;;21270330;27;20549;-79
2022/11/25 12:22:43;;;;;;;27.10;13.38;;;7.30;99.90;;;;;;21303278;27;19951;-79
2022/11/25 12:32:53;;;;;;;25.52;13.20;;;7.00;99.90;;;;;;21335789;27;20045;-79
2022/11/25 12:43:01;;;;;;;34.30;13.75;;;7.10;99.90;;;;;;21337854;27;20031;-79
2022/11/25 12:53:15;;;;;;;26.02;13.10;;;7.00;99.90;;;;;;21239813;27;20034;-79
2022/11/25 13:03:34;;;;;;;33.75;14.07;;;7.10;99.90;;;;;;21258338;27;20413;-79
2022/11/25 13:14:20;;;;;;;30.25;13.10;;;7.20;99.90;;;;;;21259374;27;20031;-79
2022/11/25 13:24:38;;;;;;;41.05;15.75;;;7.20;99.90;;;;;;21127427;27;20128;-79
2022/11/25 13:34:39;;;;;;;37.10;16.48;;;7.10;99.90;;;;;;21179675;27;20031;-79
2022/11/25 13:44:53;;;;;;;34.10;14.63;;;7.10;99.90;;;;;;21217255;27;20109;-78
2022/11/25 13:54:55;;;;;;;37.50;14.95;;;7.10;99.90;;;;;;21257951;27;20072;-78
2022/11/25 14:05:30;;;;;;;35.55;14.82;;;7.20;99.90;;;;;;21258978;27;20064;-78
2022/11/25 14:15:40;;;;;;;23.08;12.15;;;7.40;99.90;;;;;;21256787;27;20501;-79
2022/11/25 14:25:49;;;;;;;25.08;12.93;;;7.50;99.90;;;;;;21334817;27;20026;-78
2022/11/25 14:35:54;;;;;;;22.83;10.60;;;7.30;99.90;;;;;;21338996;27;20497;-78
2022/11/25 14:46:19;;;;;;;25.75;9.73;;;7.40;99.90;;;;;;21325365;27;20027;-79
2022/11/25 14:56:32;;;;;;;18.88;7.93;;;7.40;99.90;;;;;;21345134;27;20038;-79
2022/11/25 15:06:39;;;;;;;16.42;7.50;;;7.50;99.90;;;;;;21322295;27;20035;-79
2022/11/25 15:16:42;;;;;;;29.80;11.73;;;7.40;99.90;;;;;;21340691;27;20434;-79
2022/11/25 15:26:51;;;;;;;21.27;10.07;;;7.50;99.90;;;;;;21263080;27;20043;-79
2022/11/25 15:36:52;;;;;;;15.00;8.20;;;7.30;99.90;;;;;;21278086;27;20034;-79
2022/11/25 15:47:06;;;;;;;29.67;10.80;;;7.10;99.90;;;;;;21249202;27;20031;-79
2022/11/25 15:57:29;;;;;;;21.63;8.23;;;6.70;99.90;;;;;;21246710;27;20281;-79
2022/11/25 16:07:30;;;;;;;19.67;10.18;;;6.90;99.90;;;;;;21267630;27;20039;-79
2022/11/25 16:17:35;;;;;;;16.03;9.23;;;6.30;99.90;;;;;;21257298;27;20156;-79
2022/11/25 16:27:37;;;;;;;21.10;8.90;;;6.10;99.90;;;;;;21350888;27;20310;-78
2022/11/25 16:37:37;;;;;;;42.72;18.20;;;5.90;99.90;;;;;;21334527;27;20038;-79
2022/11/25 16:47:38;;;;;;;;;;;5.80;99.90;;;;;;21354322;27;20465;-79
2022/11/25 16:57:41;;;;;;;37.07;14.77;;;5.90;99.90;;;;;;21351888;27;20376;-78
2022/11/25 17:07:42;;;;;;;19.40;8.63;;;5.90;99.90;;;;;;21355136;27;20042;-80
2022/11/25 17:17:44;;;;;;;;;;;5.60;99.90;;;;;;21342334;27;20042;-78
2022/11/25 17:27:46;;;;;;;20.07;7.63;;;5.80;99.90;;;;;;21338786;27;19914;-78
2022/11/25 17:37:46;;;;;;;24.38;9.77;;;5.30;99.90;;;;;;21349088;27;20390;-79
2022/11/25 17:47:47;;;;;;;;;;;5.30;99.90;;;;;;21327709;27;20048;-78
2022/11/25 17:57:48;;;;;;;28.90;7.80;;;5.60;99.90;;;;;;21349944;27;19907;-78
2022/11/25 18:07:49;;;;;;;;;;;5.40;99.90;;;;;;21325366;27;20033;-79
2022/11/25 18:17:58;;;;;;;16.95;6.90;;;5.30;99.90;;;;;;21341731;27;19911;-78
2022/11/25 18:28:00;;;;;;;29.83;8.90;;;5.40;99.90;;;;;;21345260;27;20449;-80
2022/11/25 18:38:00;;;;;;;24.30;9.88;;;5.50;99.90;;;;;;21349194;27;20034;-80
2022/11/25 18:48:10;;;;;;;;;;;5.60;99.90;;;;;;21347481;27;20062;-79
2022/11/25 18:58:17;;;;;;;18.15;8.55;;;5.60;99.90;;;;;;21331538;27;19998;-80
2022/11/25 19:08:18;;;;;;;26.25;8.88;;;5.70;99.90;;;;;;21359876;27;20023;-78
2022/11/25 19:18:25;;;;;;;26.60;11.98;;;5.80;99.90;;;;;;21354987;27;20034;-78
2022/11/25 19:28:27;;;;;;;20.38;9.90;;;5.90;99.90;;;;;;21338384;27;20027;-79
2022/11/25 19:38:29;;;;;;;16.80;7.78;;;6.10;99.90;;;;;;21327581;27;20392;-80
2022/11/25 19:48:37;;;;;;;13.55;6.57;;;6.10;99.90;;;;;;21341663;27;20167;-81
2022/11/25 19:58:38;;;;;;;15.00;7.20;;;6.20;99.90;;;;;;21340239;27;20054;-81
2022/11/25 20:08:39;;;;;;;16.37;7.27;;;6.20;99.90;;;;;;21358822;27;20044;-80
2022/11/25 20:18:40;;;;;;;25.00;8.13;;;6.20;99.90;;;;;;21356827;27;20281;-81
2022/11/25 20:28:40;;;;;;;14.18;6.38;;;6.20;99.90;;;;;;21255461;27;20035;-79
2022/11/25 20:39:01;;;;;;;15.20;6.97;;;6.20;99.90;;;;;;21273518;27;20027;-80
2022/11/25 20:49:28;;;;;;;28.52;10.65;;;6.30;99.90;;;;;;21267752;27;20031;-80
2022/11/25 20:59:29;;;;;;;19.13;10.55;;;6.30;99.90;;;;;;21239648;27;20036;-80
2022/11/25 21:09:34;;;;;;;33.03;14.60;;;6.30;99.90;;;;;;21238862;27;20027;-80
2022/11/25 21:19:34;;;;;;;28.45;11.32;;;6.40;99.90;;;;;;21267368;27;20034;-80
2022/11/25 21:29:35;;;;;;;29.03;11.60;;;6.20;99.90;;;;;;21268215;27;20027;-78
2022/11/25 21:39:36;;;;;;;36.83;15.50;;;6.00;99.90;;;;;;21264831;27;20380;-78
2022/11/25 21:49:37;;;;;;;;;;;5.90;99.90;;;;;;21226491;27;20801;-80
2022/11/25 21:59:37;;;;;;;24.40;11.87;;;5.80;99.90;;;;;;21262588;27;19907;-79
2022/11/25 22:09:38;;;;;;;;;;;5.60;99.90;;;;;;21261043;27;20038;-79
2022/11/25 22:19:39;;;;;;;14.25;8.38;;;5.30;99.90;;;;;;21266684;27;19918;-79
2022/11/25 22:29:40;;;;;;;;;;;5.00;99.90;;;;;;21345255;27;20081;-79
2022/11/25 22:39:40;;;;;;;15.40;7.57;;;4.90;99.90;;;;;;21367658;27;20357;-80
2022/11/25 22:49:44;;;;;;;12.75;5.78;;;4.60;99.90;;;;;;21350022;27;20069;-79
2022/11/25 22:59:45;;;;;;;8.60;4.38;;;4.60;99.90;;;;;;21365105;27;20030;-79
2022/11/25 23:09:46;;;;;;;11.40;3.67;;;4.70;99.90;;;;;;21365656;27;20114;-79
2022/11/25 23:19:47;;;;;;;13.98;3.60;;;4.50;99.90;;;;;;21369631;27;20034;-80
2022/11/25 23:29:48;;;;;;;14.63;6.90;;;4.80;99.90;;;;;;21365976;27;20033;-80
2022/11/25 23:39:51;;;;;;;9.68;3.63;;;5.00;99.90;;;;;;21366263;27;20071;-79
2022/11/25 23:49:55;;;;;;;6.78;3.08;;;4.90;99.90;;;;;;21334389;27;20079;-79
2022/11/25 23:59:56;;;;;;;6.05;2.47;;;4.90;99.90;;;;;;21350978;27;20105;-79
